Time;durP1;ratioP1;P1;durP2;ratioP2;P2;SDS_P1;SDS_P2;PMS_P1;PMS_P2;Temp;Humidity;BMP_temperature;BMP_pressure;BME280_temperature;BME280_humidity;BME280_pressure;Samples;Min_cycle;Max_cycle;Signal;HPM_P1;HPM_P2
2022/01/14 00:01:48;;;;;;;;;;;;;;;;;;5138978;27;19966;-75
2022/01/14 00:04:13;;;;;;;;;;;;;;;;;;5139537;27;20395;-75
2022/01/14 00:06:39;;;;;;;;;;;;;;;;;;5140408;27;20445;-75
2022/01/14 00:09:10;;;;;;;;;;;;;;;;;;5139640;27;19984;-75
2022/01/14 00:11:36;;;;;;;;;;;;;;;;;;5139346;27;19922;-75
2022/01/14 00:16:29;;;;;;;;;;;;;;;;;;5139313;27;19915;-75
2022/01/14 00:18:55;;;;;;;;;;;;;;;;;;5139373;27;20014;-75
2022/01/14 00:21:20;;;;;;;;;;;;;;;;;;5121055;27;19915;-75
2022/01/14 00:23:50;;;;;;;;;;;;;;;;;;5120913;27;19920;-76
2022/01/14 00:31:58;;;;;;;;;;;;;;;;;;5118773;27;19941;-75
2022/01/14 00:34:24;;;;;;;;;;;;;;;;;;5102176;27;19926;-75
2022/01/14 00:36:49;;;;;;;;;;;;;;;;;;5137319;27;20010;-75
2022/01/14 00:39:15;;;;;;;;;;;;;;;;;;5137565;27;19940;-76
2022/01/14 00:41:41;;;;;;;;;;;;;;;;;;5136372;27;19919;-76
2022/01/14 00:44:10;;;;;;;;;;;;;;;;;;5137576;27;19915;-76
2022/01/14 00:46:37;;;;;;;;;;;;;;;;;;5136532;27;20015;-75
2022/01/14 00:49:02;;;;;;;;;;;;;;;;;;5118432;27;19920;-75
2022/01/14 00:51:28;;;;;;;;;;;;;;;;;;5137323;27;19968;-76
2022/01/14 00:53:53;;;;;;;;;;;;;;;;;;5137083;27;20172;-75
2022/01/14 01:01:30;;;;;;;;;;;;;;;;;;5117865;27;20007;-75
2022/01/14 01:03:56;;;;;;;;;;;;;;;;;;5136007;27;20002;-76
2022/01/14 01:06:21;;;;;;;;;;;;;;;;;;5136890;27;20488;-75
2022/01/14 01:08:49;;;;;;;;;;;;;;;;;;5118605;27;19923;-76
2022/01/14 01:11:17;;;;;;;;;;;;;;;;;;5136986;27;20377;-76
2022/01/14 01:13:48;;;;;;;;;;;;;;;;;;5137139;27;19915;-75
2022/01/14 01:16:14;;;;;;;;;;;;;;;;;;5136780;27;19919;-76
2022/01/14 01:18:39;;;;;;;;;;;;;;;;;;5136474;27;19926;-75
2022/01/14 01:21:04;;;;;;;;;;;;;;;;;;5136456;27;19916;-75
2022/01/14 01:23:30;;;;;;;;;;;;;;;;;;5136805;27;19915;-75
2022/01/14 01:26:11;;;;;;;;;;;;;;;;;;5118132;27;19922;-75
2022/01/14 01:28:51;;;;;;;;;;;;;;;;;;5118139;27;19916;-75
2022/01/14 01:31:35;;;;;;;;;;;;;;;;;;5118114;27;19919;-75
2022/01/14 01:34:01;;;;;;;;;;;;;;;;;;5117539;27;20006;-75
2022/01/14 01:36:26;;;;;;;;;;;;;;;;;;5136316;27;19922;-75
2022/01/14 01:38:52;;;;;;;;;;;;;;;;;;5136086;27;20376;-75
2022/01/14 01:41:17;;;;;;;;;;;;;;;;;;5135996;27;19922;-75
2022/01/14 01:43:44;;;;;;;;;;;;;;;;;;5136297;27;20269;-75
2022/01/14 01:46:10;;;;;;;;;;;;;;;;;;5136073;27;19923;-75
2022/01/14 01:48:35;;;;;;;;;;;;;;;;;;5117279;27;19920;-75
2022/01/14 01:51:03;;;;;;;;;;;;;;;;;;5135953;27;19957;-75
2022/01/14 01:53:31;;;;;;;;;;;;;;;;;;5135695;27;19916;-75
2022/01/14 01:55:58;;;;;;;;;;;;;;;;;;5134737;27;21311;-75
2022/01/14 01:58:23;;;;;;;;;;;;;;;;;;5135908;27;20376;-75
2022/01/14 02:00:48;;;;;;;;;;;;;;;;;;5135910;27;20348;-75
2022/01/14 02:03:14;;;;;;;;;;;;;;;;;;5117083;27;19984;-75
2022/01/14 02:05:39;;;;;;;;;;;;;;;;;;5135690;27;20279;-75
2022/01/14 02:08:04;;;;;;;;;;;;;;;;;;5135656;27;19965;-75
2022/01/14 02:10:30;;;;;;;;;;;;;;;;;;5135722;27;19915;-75
2022/01/14 02:12:55;;;;;;;;;;;;;;;;;;5117075;27;20339;-75
2022/01/14 02:15:45;;;;;;;;;;;;;;;;;;5117360;27;19920;-75
2022/01/14 02:18:30;;;;;;;;;;;;;;;;;;5134960;27;20281;-75
2022/01/14 02:23:44;;;;;;;;;;;;;;;;;;5135326;27;19915;-75
2022/01/14 02:26:10;;;;;;;;;;;;;;;;;;5135594;27;19922;-75
2022/01/14 02:28:36;;;;;;;;;;;;;;;;;;5135527;27;19915;-75
2022/01/14 02:31:01;;;;;;;;;;;;;;;;;;5135373;27;19915;-75
2022/01/14 02:33:26;;;;;;;;;;;;;;;;;;5135185;27;19957;-75
2022/01/14 02:35:53;;;;;;;;;;;;;;;;;;5135359;27;19927;-75
2022/01/14 02:38:18;;;;;;;;;;;;;;;;;;5134952;27;19915;-75
2022/01/14 02:40:44;;;;;;;;;;;;;;;;;;5135402;27;19920;-75
2022/01/14 02:43:14;;;;;;;;;;;;;;;;;;5135084;27;20368;-75
2022/01/14 02:45:40;;;;;;;;;;;;;;;;;;5134806;27;19915;-75
2022/01/14 02:48:06;;;;;;;;;;;;;;;;;;5116463;27;20384;-75
2022/01/14 02:50:41;;;;;;;;;;;;;;;;;;5116074;27;19922;-75
2022/01/14 02:53:25;;;;;;;;;;;;;;;;;;5116672;27;19960;-75
2022/01/14 02:55:52;;;;;;;;;;;;;;;;;;5116485;27;19919;-75
2022/01/14 02:58:18;;;;;;;;;;;;;;;;;;5134630;27;20253;-75
2022/01/14 03:00:44;;;;;;;;;;;;;;;;;;5134934;27;19915;-75
2022/01/14 03:03:09;;;;;;;;;;;;;;;;;;5134430;27;20384;-75
2022/01/14 03:05:34;;;;;;;;;;;;;;;;;;5133947;27;19925;-75
2022/01/14 03:08:00;;;;;;;;;;;;;;;;;;5134939;27;19922;-75
2022/01/14 03:10:25;;;;;;;;;;;;;;;;;;5134715;27;20725;-75
2022/01/14 03:12:50;;;;;;;;;;;;;;;;;;5134669;28;20432;-76
2022/01/14 03:15:16;;;;;;;;;;;;;;;;;;5134551;28;19919;-74
2022/01/14 03:17:42;;;;;;;;;;;;;;;;;;5116263;28;19920;-77
2022/01/14 03:20:09;;;;;;;;;;;;;;;;;;5135141;28;19923;-77
2022/01/14 03:22:36;;;;;;;;;;;;;;;;;;5134465;28;19919;-75
2022/01/14 03:27:50;;;;;;;;;;;;;;;;;;5134528;27;19915;-75
2022/01/14 03:30:15;;;;;;;;;;;;;;;;;;5134722;28;19915;-75
2022/01/14 03:32:41;;;;;;;;;;;;;;;;;;5133876;28;20416;-75
2022/01/14 03:35:07;;;;;;;;;;;;;;;;;;5115665;28;20010;-75
2022/01/14 03:37:32;;;;;;;;;;;;;;;;;;5134520;27;19915;-75
2022/01/14 03:39:57;;;;;;;;;;;;;;;;;;5134377;28;19919;-75
2022/01/14 03:42:23;;;;;;;;;;;;;;;;;;5134115;28;19916;-75
2022/01/14 03:44:48;;;;;;;;;;;;;;;;;;5134328;28;19915;-75
2022/01/14 03:47:13;;;;;;;;;;;;;;;;;;5098675;28;20493;-75
2022/01/14 03:49:38;;;;;;;;;;;;;;;;;;5134403;28;20015;-75
2022/01/14 03:52:04;;;;;;;;;;;;;;;;;;5134961;28;19919;-77
2022/01/14 03:54:30;;;;;;;;;;;;;;;;;;5135286;28;19939;-77
2022/01/14 03:56:55;;;;;;;;;;;;;;;;;;5133914;27;20365;-77
2022/01/14 03:59:20;;;;;;;;;;;;;;;;;;5134477;28;19919;-77
2022/01/14 04:01:46;;;;;;;;;;;;;;;;;;5133559;28;19911;-76
2022/01/14 04:04:11;;;;;;;;;;;;;;;;;;5116043;28;19916;-77
2022/01/14 04:06:37;;;;;;;;;;;;;;;;;;5134384;28;19916;-76
2022/01/14 04:09:02;;;;;;;;;;;;;;;;;;5133867;27;19922;-77
2022/01/14 04:11:29;;;;;;;;;;;;;;;;;;5134262;28;19916;-77
2022/01/14 04:13:56;;;;;;;;;;;;;;;;;;5134037;28;20253;-77
2022/01/14 04:16:23;;;;;;;;;;;;;;;;;;5137298;27;19920;-77
2022/01/14 04:18:49;;;;;;;;;;;;;;;;;;5137956;27;20007;-77
2022/01/14 04:21:14;;;;;;;;;;;;;;;;;;5137989;27;19919;-76
2022/01/14 04:23:40;;;;;;;;;;;;;;;;;;5137819;27;19976;-77
2022/01/14 04:26:05;;;;;;;;;;;;;;;;;;5119155;27;19915;-77
2022/01/14 04:28:34;;;;;;;;;;;;;;;;;;5137534;27;19915;-77
2022/01/14 04:30:59;;;;;;;;;;;;;;;;;;5137659;27;19971;-77
2022/01/14 04:33:26;;;;;;;;;;;;;;;;;;5118850;27;19915;-77
2022/01/14 04:35:52;;;;;;;;;;;;;;;;;;5137449;27;19919;-77
2022/01/14 04:38:17;;;;;;;;;;;;;;;;;;5137397;27;20273;-77
2022/01/14 04:40:43;;;;;;;;;;;;;;;;;;5137463;27;20261;-77
2022/01/14 04:43:09;;;;;;;;;;;;;;;;;;5137078;27;19922;-77
2022/01/14 04:47:59;;;;;;;;;;;;;;;;;;5137247;27;20385;-77
2022/01/14 04:50:25;;;;;;;;;;;;;;;;;;5137478;27;19915;-77
2022/01/14 04:52:50;;;;;;;;;;;;;;;;;;5137121;27;19915;-77
2022/01/14 04:55:17;;;;;;;;;;;;;;;;;;5137028;27;20357;-77
2022/01/14 04:57:43;;;;;;;;;;;;;;;;;;5137013;27;19961;-77
2022/01/14 05:00:10;;;;;;;;;;;;;;;;;;5137134;27;19946;-77
2022/01/14 05:02:36;;;;;;;;;;;;;;;;;;5136555;27;19915;-77
2022/01/14 05:05:03;;;;;;;;;;;;;;;;;;5136924;27;20002;-76
2022/01/14 05:07:28;;;;;;;;;;;;;;;;;;5136636;27;19916;-77
2022/01/14 05:12:31;;;;;;;;;;;;;;;;;;5136941;27;20305;-77
2022/01/14 05:14:56;;;;;;;;;;;;;;;;;;5136834;27;19920;-77
2022/01/14 05:17:22;;;;;;;;;;;;;;;;;;5118328;27;19938;-77
2022/01/14 05:19:47;;;;;;;;;;;;;;;;;;5136710;27;19959;-77
2022/01/14 05:22:12;;;;;;;;;;;;;;;;;;5136674;27;19922;-77
2022/01/14 05:24:38;;;;;;;;;;;;;;;;;;5136779;27;19922;-76
2022/01/14 05:27:03;;;;;;;;;;;;;;;;;;5135934;27;19922;-77
2022/01/14 05:29:29;;;;;;;;;;;;;;;;;;5136431;27;19915;-76
2022/01/14 05:32:02;;;;;;;;;;;;;;;;;;5133149;27;20421;-77
2022/01/14 05:34:28;;;;;;;;;;;;;;;;;;5112635;27;19926;-77
2022/01/14 05:36:53;;;;;;;;;;;;;;;;;;5135930;27;19915;-76
2022/01/14 05:39:21;;;;;;;;;;;;;;;;;;5136351;27;19915;-77
2022/01/14 05:41:47;;;;;;;;;;;;;;;;;;5136208;27;20326;-77
2022/01/14 05:44:12;;;;;;;;;;;;;;;;;;5136278;27;19915;-77
2022/01/14 05:46:38;;;;;;;;;;;;;;;;;;5136133;27;19960;-77
2022/01/14 05:49:04;;;;;;;;;;;;;;;;;;5136076;27;19919;-77
2022/01/14 05:51:29;;;;;;;;;;;;;;;;;;5136003;27;19915;-77
2022/01/14 05:53:54;;;;;;;;;;;;;;;;;;5136182;27;19923;-77
2022/01/14 05:56:20;;;;;;;;;;;;;;;;;;5135539;27;20314;-77
2022/01/14 05:58:45;;;;;;;;;;;;;;;;;;5117076;27;20246;-77
2022/01/14 06:01:10;;;;;;;;;;;;;;;;;;5135982;27;20067;-77
2022/01/14 06:03:36;;;;;;;;;;;;;;;;;;5135693;27;19922;-77
2022/01/14 06:06:01;;;;;;;;;;;;;;;;;;5136003;27;19922;-77
2022/01/14 06:08:26;;;;;;;;;;;;;;;;;;5135543;27;19973;-77
2022/01/14 06:10:52;;;;;;;;;;;;;;;;;;5117311;27;19915;-77
2022/01/14 06:13:17;;;;;;;;;;;;;;;;;;5135744;27;19999;-77
2022/01/14 06:15:42;;;;;;;;;;;;;;;;;;5134941;27;19920;-77
2022/01/14 06:18:08;;;;;;;;;;;;;;;;;;5135667;27;19915;-77
2022/01/14 06:20:33;;;;;;;;;;;;;;;;;;5135565;27;19915;-77
2022/01/14 06:22:59;;;;;;;;;;;;;;;;;;5135423;27;19968;-77
2022/01/14 06:25:24;;;;;;;;;;;;;;;;;;5135240;27;19976;-77
2022/01/14 06:27:50;;;;;;;;;;;;;;;;;;5135551;27;19919;-77
2022/01/14 06:30:15;;;;;;;;;;;;;;;;;;5134632;27;19919;-77
2022/01/14 06:32:41;;;;;;;;;;;;;;;;;;5135445;27;19956;-76
2022/01/14 06:35:11;;;;;;;;;;;;;;;;;;5135905;27;20381;-77
2022/01/14 06:37:37;;;;;;;;;;;;;;;;;;5135086;27;19915;-77
2022/01/14 06:40:03;;;;;;;;;;;;;;;;;;5134560;27;19915;-76
2022/01/14 06:42:29;;;;;;;;;;;;;;;;;;5134673;27;19923;-76
2022/01/14 06:44:54;;;;;;;;;;;;;;;;;;5135188;27;19919;-76
2022/01/14 06:47:22;;;;;;;;;;;;;;;;;;5133866;27;19915;-77
2022/01/14 06:49:47;;;;;;;;;;;;;;;;;;5133714;27;19915;-77
2022/01/14 06:52:12;;;;;;;;;;;;;;;;;;5116680;27;19915;-77
2022/01/14 06:54:38;;;;;;;;;;;;;;;;;;5134842;27;20234;-76
2022/01/14 06:57:03;;;;;;;;;;;;;;;;;;5134936;27;19916;-76
2022/01/14 06:59:29;;;;;;;;;;;;;;;;;;5134795;27;19915;-76
2022/01/14 07:01:54;;;;;;;;;;;;;;;;;;5134929;27;20420;-76
2022/01/14 07:04:19;;;;;;;;;;;;;;;;;;5134485;27;20265;-76
2022/01/14 07:06:44;;;;;;;;;;;;;;;;;;5134766;27;19915;-76
2022/01/14 07:09:10;;;;;;;;;;;;;;;;;;5134804;27;19968;-76
2022/01/14 07:11:37;;;;;;;;;;;;;;;;;;5134974;27;19916;-76
2022/01/14 07:14:05;;;;;;;;;;;;;;;;;;5135042;28;19915;-75
2022/01/14 07:16:32;;;;;;;;;;;;;;;;;;5134599;28;19926;-77
2022/01/14 07:18:58;;;;;;;;;;;;;;;;;;5134625;27;19911;-76
2022/01/14 07:21:23;;;;;;;;;;;;;;;;;;5134850;28;19922;-76
2022/01/14 07:23:50;;;;;;;;;;;;;;;;;;5116323;28;19916;-76
2022/01/14 07:26:16;;;;;;;;;;;;;;;;;;5135048;28;19976;-76
2022/01/14 07:28:42;;;;;;;;;;;;;;;;;;5134628;27;19980;-76
2022/01/14 07:31:07;;;;;;;;;;;;;;;;;;5116314;28;19915;-76
2022/01/14 07:33:32;;;;;;;;;;;;;;;;;;5134402;28;19915;-77
2022/01/14 07:35:57;;;;;;;;;;;;;;;;;;5116089;28;19919;-75
2022/01/14 07:38:23;;;;;;;;;;;;;;;;;;5134510;28;19916;-76
2022/01/14 07:40:48;;;;;;;;;;;;;;;;;;5134541;28;19922;-76
2022/01/14 07:43:14;;;;;;;;;;;;;;;;;;5134400;28;19919;-74
2022/01/14 07:45:39;;;;;;;;;;;;;;;;;;5134342;28;19919;-74
2022/01/14 07:48:04;;;;;;;;;;;;;;;;;;5133673;27;20043;-76
2022/01/14 07:50:29;;;;;;;;;;;;;;;;;;5135844;27;20415;-77
2022/01/14 07:52:55;;;;;;;;;;;;;;;;;;5136634;27;19947;-76
2022/01/14 07:55:20;;;;;;;;;;;;;;;;;;5137175;27;19975;-76
2022/01/14 07:57:46;;;;;;;;;;;;;;;;;;5138125;27;20024;-76
2022/01/14 08:00:11;;;;;;;;;;;;;;;;;;5137917;27;19915;-76
2022/01/14 08:02:40;;;;;;;;;;;;;;;;;;5120344;27;20261;-77
2022/01/14 08:05:06;;;;;;;;;;;;;;;;;;5138572;27;19916;-77
2022/01/14 08:07:34;;;;;;;;;;;;;;;;;;5137217;27;19915;-75
2022/01/14 08:09:59;;;;;;;;;;;;;;;;;;5120295;27;19926;-75
2022/01/14 08:12:25;;;;;;;;;;;;;;;;;;5138323;27;19915;-75
2022/01/14 08:14:50;;;;;;;;;;;;;;;;;;5137330;27;19922;-74
2022/01/14 08:17:18;;;;;;;;;;;;;;;;;;5118166;27;20377;-74
2022/01/14 08:19:44;;;;;;;;;;;;;;;;;;5137510;27;19916;-74
2022/01/14 08:22:09;;;;;;;;;;;;;;;;;;5137155;27;19922;-75
2022/01/14 08:24:35;;;;;;;;;;;;;;;;;;5137289;27;20368;-74
2022/01/14 08:27:01;;;;;;;;;;;;;;;;;;5137778;27;19919;-74
2022/01/14 08:29:30;;;;;;;;;;;;;;;;;;5119385;27;20444;-75
2022/01/14 08:31:55;;;;;;;;;;;;;;;;;;5137672;27;19923;-74
2022/01/14 08:34:21;;;;;;;;;;;;;;;;;;5118961;27;20356;-74
2022/01/14 08:36:47;;;;;;;;;;;;;;;;;;5137388;27;19967;-74
2022/01/14 08:39:12;;;;;;;;;;;;;;;;;;5137382;27;19919;-75
2022/01/14 08:41:38;;;;;;;;;;;;;;;;;;5137573;27;19915;-75
2022/01/14 08:44:03;;;;;;;;;;;;;;;;;;5137839;27;19996;-76
2022/01/14 08:46:29;;;;;;;;;;;;;;;;;;5136570;27;19915;-76
2022/01/14 08:48:56;;;;;;;;;;;;;;;;;;5137253;27;19923;-76
2022/01/14 08:51:22;;;;;;;;;;;;;;;;;;5139289;27;19916;-77
2022/01/14 08:53:47;;;;;;;;;;;;;;;;;;5141125;27;19922;-80
2022/01/14 08:56:13;;;;;;;;;;;;;;;;;;5140379;27;19919;-77
2022/01/14 08:58:39;;;;;;;;;;;;;;;;;;5139454;27;19915;-77
2022/01/14 09:01:04;;;;;;;;;;;;;;;;;;5117814;27;20392;-77
2022/01/14 09:03:30;;;;;;;;;;;;;;;;;;5135860;27;19915;-77
2022/01/14 09:05:55;;;;;;;;;;;;;;;;;;5138347;27;19976;-79
2022/01/14 09:08:20;;;;;;;;;;;;;;;;;;5133740;27;20383;-76
2022/01/14 09:10:45;;;;;;;;;;;;;;;;;;5115145;28;19919;-75
2022/01/14 09:13:13;;;;;;;;;;;;;;;;;;5115018;27;19916;-75
2022/01/14 09:15:39;;;;;;;;;;;;;;;;;;5115953;28;19920;-75
2022/01/14 09:18:04;;;;;;;;;;;;;;;;;;5115714;28;20388;-76
2022/01/14 09:20:30;;;;;;;;;;;;;;;;;;5096987;28;19991;-75
2022/01/14 09:22:57;;;;;;;;;;;;;;;;;;5097973;28;20334;-75
2022/01/14 09:25:23;;;;;;;;;;;;;;;;;;5116217;28;19947;-76
2022/01/14 09:27:51;;;;;;;;;;;;;;;;;;5115667;28;20336;-75
2022/01/14 09:30:17;;;;;;;;;;;;;;;;;;5115950;28;19915;-75
2022/01/14 09:32:42;;;;;;;;;;;;;;;;;;5124275;27;20002;-75
2022/01/14 09:35:11;;;;;;;;;;;;;;;;;;5136492;27;19920;-75
2022/01/14 09:37:36;;;;;;;;;;;;;;;;;;5136124;27;19920;-75
2022/01/14 09:40:02;;;;;;;;;;;;;;;;;;5136102;27;19915;-76
2022/01/14 09:42:30;;;;;;;;;;;;;;;;;;5135227;27;20337;-74
2022/01/14 09:44:55;;;;;;;;;;;;;;;;;;5136099;27;19920;-76
2022/01/14 09:47:21;;;;;;;;;;;;;;;;;;5135218;27;19915;-75
2022/01/14 09:49:46;;;;;;;;;;;;;;;;;;5135847;27;19930;-77
2022/01/14 09:52:13;;;;;;;;;;;;;;;;;;5135356;27;19915;-75
2022/01/14 09:54:40;;;;;;;;;;;;;;;;;;5135815;27;20261;-74
2022/01/14 09:57:06;;;;;;;;;;;;;;;;;;5135907;27;19922;-76
2022/01/14 09:59:32;;;;;;;;;;;;;;;;;;5117562;27;20356;-76
2022/01/14 10:01:57;;;;;;;;;;;;;;;;;;5134693;27;19941;-76
2022/01/14 10:04:23;;;;;;;;;;;;;;;;;;5135777;27;19955;-78
2022/01/14 10:06:49;;;;;;;;;;;;;;;;;;5136064;27;19915;-77
2022/01/14 10:09:19;;;;;;;;;;;;;;;;;;5135881;27;19915;-75
2022/01/14 10:11:59;;;;;;;;;;;;;;;;;;5135659;27;19922;-75
2022/01/14 10:14:24;;;;;;;;;;;;;;;;;;5135662;27;19919;-76
2022/01/14 10:16:53;;;;;;;;;;;;;;;;;;5135760;27;19964;-76
2022/01/14 10:19:21;;;;;;;;;;;;;;;;;;5136248;27;20325;-77
2022/01/14 10:21:46;;;;;;;;;;;;;;;;;;5135377;27;19915;-76
2022/01/14 10:24:13;;;;;;;;;;;;;;;;;;5135391;27;19923;-77
2022/01/14 10:26:48;;;;;;;;;;;;;;;;;;5135467;27;19915;-76
2022/01/14 10:29:14;;;;;;;;;;;;;;;;;;5135421;27;20430;-76
2022/01/14 10:31:42;;;;;;;;;;;;;;;;;;5135385;27;19916;-77
2022/01/14 10:34:14;;;;;;;;;;;;;;;;;;5135579;27;19966;-76
2022/01/14 10:36:43;;;;;;;;;;;;;;;;;;5134839;27;19920;-78
2022/01/14 10:39:18;;;;;;;;;;;;;;;;;;5135498;27;20297;-77
2022/01/14 10:41:43;;;;;;;;;;;;;;;;;;5135271;27;19915;-76
2022/01/14 10:44:28;;;;;;;;;;;;;;;;;;5135451;27;20325;-77
2022/01/14 10:47:11;;;;;;;;;;;;;;;;;;5134242;27;19938;-77
2022/01/14 10:49:37;;;;;;;;;;;;;;;;;;5135181;27;19920;-77
2022/01/14 10:52:12;;;;;;;;;;;;;;;;;;5140567;27;19936;-79
2022/01/14 10:54:38;;;;;;;;;;;;;;;;;;5140233;27;20039;-78
2022/01/14 10:57:22;;;;;;;;;;;;;;;;;;5139719;27;19915;-80
2022/01/14 10:59:48;;;;;;;;;;;;;;;;;;5142856;27;19915;-81
2022/01/14 11:02:33;;;;;;;;;;;;;;;;;;5140469;27;19927;-80
2022/01/14 11:05:05;;;;;;;;;;;;;;;;;;5139245;27;19921;-79
2022/01/14 11:07:31;;;;;;;;;;;;;;;;;;5139009;27;19916;-81
2022/01/14 11:09:57;;;;;;;;;;;;;;;;;;5138933;27;19919;-79
2022/01/14 11:12:23;;;;;;;;;;;;;;;;;;5118891;27;19922;-79
2022/01/14 11:14:49;;;;;;;;;;;;;;;;;;5120062;28;19919;-82
2022/01/14 11:17:14;;;;;;;;;;;;;;;;;;5120266;28;19915;-81
2022/01/14 11:19:41;;;;;;;;;;;;;;;;;;5120024;28;19922;-80
2022/01/14 11:24:53;;;;;;;;;;;;;;;;;;5124952;27;20340;-81
2022/01/14 11:27:18;;;;;;;;;;;;;;;;;;5131880;27;19997;-80
2022/01/14 11:29:48;;;;;;;;;;;;;;;;;;5127550;27;20296;-83
2022/01/14 11:32:14;;;;;;;;;;;;;;;;;;5146497;27;20009;-80
2022/01/14 11:34:42;;;;;;;;;;;;;;;;;;5112292;27;19954;-81
2022/01/14 11:37:13;;;;;;;;;;;;;;;;;;5146583;27;19935;-80
2022/01/14 11:39:40;;;;;;;;;;;;;;;;;;5128930;27;19976;-80
2022/01/14 11:42:09;;;;;;;;;;;;;;;;;;5146509;27;19919;-80
2022/01/14 11:44:45;;;;;;;;;;;;;;;;;;5147035;27;19968;-78
2022/01/14 11:47:25;;;;;;;;;;;;;;;;;;5122648;27;20316;-80
2022/01/14 11:49:54;;;;;;;;;;;;;;;;;;5140974;27;19920;-81
2022/01/14 11:52:36;;;;;;;;;;;;;;;;;;5140878;27;19922;-81
2022/01/14 11:55:02;;;;;;;;;;;;;;;;;;5139714;27;20328;-81
2022/01/14 11:57:45;;;;;;;;;;;;;;;;;;5140453;27;19958;-81
2022/01/14 12:00:37;;;;;;;;;;;;;;;;;;5122162;27;19920;-81
2022/01/14 12:03:15;;;;;;;;;;;;;;;;;;5104034;28;19916;-81
2022/01/14 12:05:50;;;;;;;;;;;;;;;;;;5084173;28;19945;-81
2022/01/14 12:08:17;;;;;;;;;;;;;;;;;;5120069;28;19972;-81
2022/01/14 12:10:44;;;;;;;;;;;;;;;;;;5119613;28;20400;-81
2022/01/14 12:13:25;;;;;;;;;;;;;;;;;;5101409;28;19915;-81
2022/01/14 12:15:58;;;;;;;;;;;;;;;;;;5119770;28;19962;-81
2022/01/14 12:18:43;;;;;;;;;;;;;;;;;;5101243;28;19916;-80
2022/01/14 12:21:08;;;;;;;;;;;;;;;;;;5101477;28;19916;-81
2022/01/14 12:23:34;;;;;;;;;;;;;;;;;;5101155;28;20361;-81
2022/01/14 12:26:19;;;;;;;;;;;;;;;;;;5101114;28;20031;-81
2022/01/14 12:28:45;;;;;;;;;;;;;;;;;;5120242;28;19987;-81
2022/01/14 12:31:11;;;;;;;;;;;;;;;;;;5131786;27;19954;-81
2022/01/14 12:33:45;;;;;;;;;;;;;;;;;;5141377;27;19915;-81
2022/01/14 12:36:11;;;;;;;;;;;;;;;;;;5121629;28;19926;-81
2022/01/14 12:38:40;;;;;;;;;;;;;;;;;;5122191;27;20010;-81
2022/01/14 12:41:15;;;;;;;;;;;;;;;;;;5121879;27;19916;-81
2022/01/14 12:43:47;;;;;;;;;;;;;;;;;;5142718;27;19992;-81
2022/01/14 12:46:34;;;;;;;;;;;;;;;;;;5125042;27;19972;-81
2022/01/14 12:49:05;;;;;;;;;;;;;;;;;;5122631;27;19998;-81
2022/01/14 12:51:31;;;;;;;;;;;;;;;;;;5122730;27;19922;-81
2022/01/14 12:53:57;;;;;;;;;;;;;;;;;;5140848;27;19916;-81
2022/01/14 12:56:24;;;;;;;;;;;;;;;;;;5140240;27;19919;-81
2022/01/14 12:59:07;;;;;;;;;;;;;;;;;;5121699;27;20376;-81
2022/01/14 13:01:34;;;;;;;;;;;;;;;;;;5126477;27;19923;-81
2022/01/14 13:04:01;;;;;;;;;;;;;;;;;;5119982;27;20296;-81
2022/01/14 13:06:27;;;;;;;;;;;;;;;;;;5140775;27;20394;-81
2022/01/14 13:08:58;;;;;;;;;;;;;;;;;;5140061;27;19915;-81
2022/01/14 13:11:24;;;;;;;;;;;;;;;;;;5139964;27;20378;-80
2022/01/14 13:13:59;;;;;;;;;;;;;;;;;;5139778;27;19962;-81
2022/01/14 13:16:24;;;;;;;;;;;;;;;;;;5122137;27;19919;-81
2022/01/14 13:18:50;;;;;;;;;;;;;;;;;;5140097;27;19915;-81
2022/01/14 13:21:15;;;;;;;;;;;;;;;;;;5140519;27;19964;-81
2022/01/14 13:23:45;;;;;;;;;;;;;;;;;;5121090;27;19926;-81
2022/01/14 13:26:10;;;;;;;;;;;;;;;;;;5139686;27;20281;-81
2022/01/14 13:28:35;;;;;;;;;;;;;;;;;;5121756;27;19923;-81
2022/01/14 13:31:04;;;;;;;;;;;;;;;;;;5104069;27;19911;-81
2022/01/14 13:33:29;;;;;;;;;;;;;;;;;;5139730;27;19916;-81
2022/01/14 13:35:55;;;;;;;;;;;;;;;;;;5121248;27;19927;-79
2022/01/14 13:38:21;;;;;;;;;;;;;;;;;;5122776;27;19915;-77
2022/01/14 13:40:52;;;;;;;;;;;;;;;;;;5136171;27;19915;-76
2022/01/14 13:43:21;;;;;;;;;;;;;;;;;;5135909;27;20295;-77
2022/01/14 13:45:48;;;;;;;;;;;;;;;;;;5136456;27;20405;-76
2022/01/14 13:48:19;;;;;;;;;;;;;;;;;;5135512;27;20017;-77
2022/01/14 13:50:45;;;;;;;;;;;;;;;;;;5135089;27;20002;-76
2022/01/14 13:53:12;;;;;;;;;;;;;;;;;;5135911;27;20441;-77
2022/01/14 13:55:56;;;;;;;;;;;;;;;;;;5137061;27;20408;-76
2022/01/14 13:58:24;;;;;;;;;;;;;;;;;;5136531;27;19916;-77
2022/01/14 14:00:51;;;;;;;;;;;;;;;;;;5119127;27;19923;-78
2022/01/14 14:03:21;;;;;;;;;;;;;;;;;;5117234;27;19915;-77
2022/01/14 14:05:52;;;;;;;;;;;;;;;;;;5135833;27;20342;-77
2022/01/14 14:08:24;;;;;;;;;;;;;;;;;;5135804;27;20006;-77
2022/01/14 14:11:59;;;;;;;;;;;;;;;;;;5135840;27;19936;-77
2022/01/14 14:16:50;;;;;;;;;;;;;;;;;;5133577;27;19923;-77
2022/01/14 14:19:15;;;;;;;;;;;;;;;;;;5134477;27;20022;-77
2022/01/14 14:21:44;;;;;;;;;;;;;;;;;;5134420;27;19919;-77
2022/01/14 14:24:12;;;;;;;;;;;;;;;;;;5134638;27;20060;-77
2022/01/14 14:26:37;;;;;;;;;;;;;;;;;;5116613;27;20014;-76
2022/01/14 14:29:21;;;;;;;;;;;;;;;;;;5135526;27;19999;-76
2022/01/14 14:31:46;;;;;;;;;;;;;;;;;;5117289;27;20368;-77
2022/01/14 14:34:12;;;;;;;;;;;;;;;;;;5134478;27;19971;-77
2022/01/14 14:36:38;;;;;;;;;;;;;;;;;;5135077;27;19959;-77
2022/01/14 14:39:04;;;;;;;;;;;;;;;;;;5117171;27;19922;-77
2022/01/14 14:41:29;;;;;;;;;;;;;;;;;;5135347;27;19915;-78
2022/01/14 14:43:55;;;;;;;;;;;;;;;;;;5135453;27;19927;-77
2022/01/14 14:46:20;;;;;;;;;;;;;;;;;;5134945;27;19915;-77
2022/01/14 14:48:45;;;;;;;;;;;;;;;;;;5135013;27;19962;-77
2022/01/14 14:51:11;;;;;;;;;;;;;;;;;;5134797;27;19919;-77
2022/01/14 14:53:37;;;;;;;;;;;;;;;;;;5135234;27;19968;-77
2022/01/14 14:56:02;;;;;;;;;;;;;;;;;;5116580;27;19920;-77
2022/01/14 14:58:29;;;;;;;;;;;;;;;;;;5135085;27;19973;-76
2022/01/14 15:00:55;;;;;;;;;;;;;;;;;;5115124;27;20014;-77
2022/01/14 15:03:20;;;;;;;;;;;;;;;;;;5135014;27;20084;-77
2022/01/14 15:05:47;;;;;;;;;;;;;;;;;;5134763;27;19930;-77
2022/01/14 15:08:13;;;;;;;;;;;;;;;;;;5099506;27;19923;-77
2022/01/14 15:10:38;;;;;;;;;;;;;;;;;;5134540;27;19915;-76
2022/01/14 15:13:05;;;;;;;;;;;;;;;;;;5134767;27;20357;-77
2022/01/14 15:20:29;;;;;;;;;;;;;;;;;;5134273;28;19916;-77
2022/01/14 15:22:55;;;;;;;;;;;;;;;;;;5116200;28;19964;-76
2022/01/14 15:25:22;;;;;;;;;;;;;;;;;;5134612;28;19922;-77
2022/01/14 15:27:48;;;;;;;;;;;;;;;;;;5134309;27;20357;-77
2022/01/14 15:30:15;;;;;;;;;;;;;;;;;;5117696;28;19920;-77
2022/01/14 15:32:40;;;;;;;;;;;;;;;;;;5134963;28;20245;-77
2022/01/14 15:35:06;;;;;;;;;;;;;;;;;;5133707;28;20039;-77
2022/01/14 15:37:31;;;;;;;;;;;;;;;;;;5134510;27;19961;-77
2022/01/14 15:39:56;;;;;;;;;;;;;;;;;;5105350;28;20280;-77
2022/01/14 15:42:22;;;;;;;;;;;;;;;;;;5125037;28;19916;-77
2022/01/14 15:44:47;;;;;;;;;;;;;;;;;;5122541;28;19998;-77
2022/01/14 15:47:13;;;;;;;;;;;;;;;;;;5105991;28;19915;-77
2022/01/14 15:49:39;;;;;;;;;;;;;;;;;;5123417;28;19974;-77
2022/01/14 15:52:05;;;;;;;;;;;;;;;;;;5122647;28;19931;-77
2022/01/14 15:54:30;;;;;;;;;;;;;;;;;;5124306;28;20404;-77
2022/01/14 15:56:56;;;;;;;;;;;;;;;;;;5123249;28;19955;-77
2022/01/14 15:59:21;;;;;;;;;;;;;;;;;;5122988;28;19939;-77
2022/01/14 16:01:47;;;;;;;;;;;;;;;;;;5124893;28;19915;-77
2022/01/14 16:04:13;;;;;;;;;;;;;;;;;;5123348;28;20305;-77
2022/01/14 16:06:39;;;;;;;;;;;;;;;;;;5125903;28;19974;-77
2022/01/14 16:09:04;;;;;;;;;;;;;;;;;;5122035;28;20253;-77
2022/01/14 16:11:30;;;;;;;;;;;;;;;;;;5123651;27;20008;-77
2022/01/14 16:14:09;;;;;;;;;;;;;;;;;;5129146;27;20292;-77
2022/01/14 16:16:34;;;;;;;;;;;;;;;;;;5102429;27;20023;-77
2022/01/14 16:19:00;;;;;;;;;;;;;;;;;;5137881;27;19927;-77
2022/01/14 16:21:25;;;;;;;;;;;;;;;;;;5137697;27;20433;-77
2022/01/14 16:23:51;;;;;;;;;;;;;;;;;;5137935;27;19916;-77
2022/01/14 16:26:16;;;;;;;;;;;;;;;;;;5119204;27;19918;-77
2022/01/14 16:28:42;;;;;;;;;;;;;;;;;;5137663;27;19962;-77
2022/01/14 16:31:07;;;;;;;;;;;;;;;;;;5137620;27;20336;-77
2022/01/14 16:33:32;;;;;;;;;;;;;;;;;;5137723;27;19969;-77
2022/01/14 16:35:58;;;;;;;;;;;;;;;;;;5137156;27;20291;-78
2022/01/14 16:38:25;;;;;;;;;;;;;;;;;;5136953;27;20398;-77
2022/01/14 16:40:50;;;;;;;;;;;;;;;;;;5137368;27;19937;-77
2022/01/14 16:43:16;;;;;;;;;;;;;;;;;;5130617;27;19920;-77
2022/01/14 16:45:42;;;;;;;;;;;;;;;;;;5127021;27;20284;-77
2022/01/14 16:48:07;;;;;;;;;;;;;;;;;;5125782;27;19926;-77
2022/01/14 16:50:32;;;;;;;;;;;;;;;;;;5125240;27;20307;-77
2022/01/14 16:52:57;;;;;;;;;;;;;;;;;;5128160;27;20363;-77
2022/01/14 16:55:23;;;;;;;;;;;;;;;;;;5125936;27;20345;-78
2022/01/14 16:57:48;;;;;;;;;;;;;;;;;;5120577;27;19995;-77
2022/01/14 17:00:16;;;;;;;;;;;;;;;;;;5123863;27;19923;-77
2022/01/14 17:02:42;;;;;;;;;;;;;;;;;;5136937;27;20367;-78
2022/01/14 17:05:08;;;;;;;;;;;;;;;;;;5140807;27;20388;-77
2022/01/14 17:07:33;;;;;;;;;;;;;;;;;;5136670;27;19998;-77
2022/01/14 17:09:58;;;;;;;;;;;;;;;;;;5118740;27;20268;-77
2022/01/14 17:12:28;;;;;;;;;;;;;;;;;;5101526;27;19923;-77
2022/01/14 17:14:53;;;;;;;;;;;;;;;;;;5111909;27;20413;-77
2022/01/14 17:17:18;;;;;;;;;;;;;;;;;;5125008;27;19930;-77
2022/01/14 17:19:44;;;;;;;;;;;;;;;;;;5127159;27;19960;-77
2022/01/14 17:22:09;;;;;;;;;;;;;;;;;;5104491;28;19966;-77